createdAt,value
2022-09-07T00:02:08.237Z,9.57
2022-09-07T00:04:35.415Z,10.20
2022-09-07T00:07:02.633Z,8.63
2022-09-07T00:09:29.755Z,7.60
2022-09-07T00:11:56.894Z,8.37
2022-09-07T00:14:24.114Z,21.27
2022-09-07T00:16:51.287Z,7.53
2022-09-07T00:19:18.425Z,7.43
2022-09-07T00:21:45.655Z,7.93
2022-09-07T00:24:12.764Z,9.77
2022-09-07T00:26:40.302Z,7.67
2022-09-07T00:29:08.000Z,7.70
2022-09-07T00:31:35.321Z,8.03
2022-09-07T00:34:02.802Z,8.30
2022-09-07T00:36:30.195Z,7.93
2022-09-07T00:38:57.673Z,9.50
2022-09-07T00:41:25.115Z,7.83
2022-09-07T00:43:56.550Z,7.27
2022-09-07T00:46:32.213Z,7.20
2022-09-07T00:49:11.294Z,7.10
2022-09-07T00:51:47.083Z,8.40
2022-09-07T00:54:18.912Z,7.80
2022-09-07T00:56:47.215Z,15.13
2022-09-07T00:59:15.313Z,9.13
2022-09-07T01:01:42.842Z,11.10
2022-09-07T01:04:10.227Z,8.13
2022-09-07T01:06:38.199Z,9.00
2022-09-07T01:09:07.433Z,7.67
2022-09-07T01:11:35.121Z,8.37
2022-09-07T01:14:03.635Z,7.77
2022-09-07T01:16:48.927Z,10.30
2022-09-07T01:19:30.452Z,8.80
2022-09-07T01:21:57.565Z,7.30
2022-09-07T01:24:48.097Z,7.97
2022-09-07T01:27:30.479Z,9.07
2022-09-07T01:29:57.618Z,8.37
2022-09-07T01:32:30.929Z,6.83
2022-09-07T01:34:58.486Z,7.00
2022-09-07T01:37:28.667Z,12.77
2022-09-07T01:40:06.128Z,8.87
2022-09-07T01:42:35.509Z,7.67
2022-09-07T01:45:04.037Z,15.87
2022-09-07T01:47:34.709Z,8.40
2022-09-07T01:50:01.857Z,8.47
2022-09-07T01:52:32.133Z,8.00
2022-09-07T01:55:01.165Z,7.83
2022-09-07T01:57:32.862Z,10.30
2022-09-07T02:00:05.445Z,7.20
2022-09-07T02:02:36.520Z,7.50
2022-09-07T02:05:12.805Z,7.47
2022-09-07T02:07:46.061Z,7.30
2022-09-07T02:10:16.205Z,8.03
2022-09-07T02:12:49.472Z,7.57
2022-09-07T02:15:23.031Z,6.93
2022-09-07T02:17:53.371Z,7.60
2022-09-07T02:20:23.339Z,7.03
2022-09-07T02:22:54.168Z,8.03
2022-09-07T02:25:23.444Z,8.27
2022-09-07T02:27:52.691Z,9.10
2022-09-07T02:30:19.841Z,7.90
2022-09-07T02:32:47.025Z,8.77
2022-09-07T02:35:14.245Z,7.40
2022-09-07T02:37:42.654Z,7.87
2022-09-07T02:40:10.213Z,9.30
2022-09-07T02:42:37.847Z,8.00
2022-09-07T02:45:06.425Z,7.30
2022-09-07T02:47:36.319Z,7.90
2022-09-07T02:50:13.007Z,7.20
2022-09-07T02:52:40.121Z,6.90
2022-09-07T02:55:16.425Z,7.60
2022-09-07T02:57:43.667Z,8.60
2022-09-07T03:00:12.815Z,7.60
2022-09-07T03:02:58.601Z,7.77
2022-09-07T03:05:31.956Z,7.37
2022-09-07T03:08:06.381Z,8.10
2022-09-07T03:10:34.141Z,7.27
2022-09-07T03:13:01.331Z,7.60
2022-09-07T03:15:29.108Z,9.53
2022-09-07T03:17:56.325Z,8.83
2022-09-07T03:20:23.603Z,7.53
2022-09-07T03:22:51.809Z,7.50
2022-09-07T03:25:19.459Z,8.33
2022-09-07T03:27:46.584Z,8.83
2022-09-07T03:30:14.078Z,8.53
2022-09-07T03:32:41.254Z,9.67
2022-09-07T03:35:08.763Z,7.13
2022-09-07T03:37:36.642Z,8.90
2022-09-07T03:40:05.300Z,7.53
2022-09-07T03:42:32.506Z,7.67
2022-09-07T03:44:59.640Z,7.63
2022-09-07T03:47:26.821Z,8.07
2022-09-07T03:49:54.027Z,8.20
2022-09-07T03:52:21.245Z,8.37
2022-09-07T03:54:48.426Z,10.87
2022-09-07T03:57:15.736Z,8.10
2022-09-07T03:59:42.881Z,9.20
2022-09-07T04:02:10.065Z,8.10
2022-09-07T04:04:37.310Z,9.47
2022-09-07T04:07:04.622Z,8.33
2022-09-07T04:09:31.851Z,7.43
2022-09-07T04:11:59.093Z,8.07
2022-09-07T04:14:26.256Z,8.23
2022-09-07T04:16:53.405Z,7.83
2022-09-07T04:19:20.601Z,8.47
2022-09-07T04:21:47.797Z,9.13
2022-09-07T04:24:15.433Z,9.20
2022-09-07T04:26:45.782Z,9.20
2022-09-07T04:29:13.624Z,7.63
2022-09-07T04:31:40.953Z,8.10
2022-09-07T04:34:08.353Z,8.47
2022-09-07T04:36:35.534Z,7.90
2022-09-07T04:39:05.255Z,11.70
2022-09-07T04:41:33.125Z,8.20
2022-09-07T04:44:01.423Z,8.30
2022-09-07T04:46:30.040Z,11.63
2022-09-07T04:48:58.906Z,7.67
2022-09-07T04:51:26.982Z,11.70
2022-09-07T04:53:54.832Z,8.17
2022-09-07T04:56:23.246Z,9.30
2022-09-07T04:58:50.790Z,8.87
2022-09-07T05:01:20.087Z,9.73
2022-09-07T05:03:47.593Z,9.03
2022-09-07T05:06:15.341Z,9.27
2022-09-07T05:08:43.443Z,9.10
2022-09-07T05:11:11.366Z,9.90
2022-09-07T05:13:38.957Z,11.47
2022-09-07T05:16:10.484Z,9.97
2022-09-07T05:18:38.157Z,10.23
2022-09-07T05:21:09.389Z,9.03
2022-09-07T05:23:36.715Z,9.30
2022-09-07T05:26:04.684Z,13.30
2022-09-07T05:28:32.287Z,8.77
2022-09-07T05:31:21.947Z,10.13
2022-09-07T05:36:36.509Z,9.20
2022-09-07T05:39:04.839Z,10.07
2022-09-07T05:41:32.251Z,10.90
2022-09-07T05:46:46.601Z,9.67
2022-09-07T05:49:13.742Z,10.83
2022-09-07T05:51:41.201Z,10.03
2022-09-07T05:54:08.364Z,11.97
2022-09-07T05:56:36.340Z,9.30
2022-09-07T05:59:03.736Z,10.00
2022-09-07T06:01:31.200Z,11.13
2022-09-07T06:03:58.359Z,11.07
2022-09-07T06:06:25.539Z,11.00
2022-09-07T06:08:53.543Z,12.50
2022-09-07T06:11:22.126Z,11.60
2022-09-07T06:13:49.590Z,11.17
2022-09-07T06:16:18.400Z,10.43
2022-09-07T06:18:47.495Z,10.70
2022-09-07T06:21:24.348Z,10.43
2022-09-07T06:23:51.992Z,9.87
2022-09-07T06:26:19.820Z,9.93
2022-09-07T06:28:50.147Z,11.27
2022-09-07T06:31:22.908Z,11.37
2022-09-07T06:33:51.011Z,11.17
2022-09-07T06:36:19.309Z,9.50
2022-09-07T06:38:47.066Z,10.57
2022-09-07T06:44:08.614Z,12.73
2022-09-07T06:49:23.757Z,14.20
2022-09-07T06:51:51.007Z,11.17
2022-09-07T06:57:09.040Z,9.80
2022-09-07T06:59:36.987Z,14.33
2022-09-07T07:02:04.458Z,11.03
2022-09-07T07:04:33.283Z,12.27
2022-09-07T07:07:03.631Z,10.77
2022-09-07T07:09:30.752Z,9.97
2022-09-07T07:11:57.888Z,10.07
2022-09-07T07:14:25.026Z,9.23
2022-09-07T07:16:52.186Z,9.80
2022-09-07T07:19:19.355Z,9.40
2022-09-07T07:22:10.683Z,9.30
2022-09-07T07:24:33.627Z,9.47
2022-09-07T07:27:00.781Z,9.73
2022-09-07T07:29:28.409Z,10.07
2022-09-07T07:31:55.894Z,10.90
2022-09-07T07:34:23.178Z,10.47
2022-09-07T07:36:50.366Z,9.80
2022-09-07T07:42:05.963Z,10.10
2022-09-07T07:44:33.402Z,10.10
2022-09-07T07:47:00.822Z,10.27
2022-09-07T07:49:27.984Z,9.00
2022-09-07T07:54:43.305Z,9.87
2022-09-07T07:57:10.554Z,10.53
2022-09-07T07:59:37.683Z,8.87
2022-09-07T08:02:06.058Z,9.00
2022-09-07T08:04:36.908Z,12.07
2022-09-07T08:07:09.626Z,12.40
2022-09-07T08:09:41.600Z,8.43
2022-09-07T08:12:11.177Z,8.53
2022-09-07T08:14:41.768Z,9.13
2022-09-07T08:17:10.217Z,8.13
2022-09-07T08:19:37.435Z,11.30
2022-09-07T08:22:04.552Z,7.97
2022-09-07T08:24:32.031Z,8.37
2022-09-07T08:26:59.236Z,7.97
2022-09-07T08:29:27.250Z,9.43
2022-09-07T08:31:54.601Z,8.13
2022-09-07T08:34:22.029Z,8.30
2022-09-07T08:36:49.185Z,8.10
2022-09-07T08:39:16.338Z,8.00
2022-09-07T08:41:54.773Z,8.00
2022-09-07T08:44:33.987Z,8.17
2022-09-07T08:47:06.896Z,7.40
2022-09-07T08:49:36.977Z,8.17
2022-09-07T08:52:30.149Z,7.77
2022-09-07T08:55:16.729Z,8.20
2022-09-07T08:57:46.653Z,8.07
2022-09-07T09:00:15.069Z,8.13
2022-09-07T09:02:44.336Z,8.90
2022-09-07T09:05:22.647Z,7.80
2022-09-07T09:07:49.811Z,8.17
2022-09-07T09:10:19.698Z,8.23
2022-09-07T09:12:59.400Z,8.20
2022-09-07T09:15:30.901Z,7.63
2022-09-07T09:18:04.009Z,8.23
2022-09-07T09:20:42.390Z,7.77
2022-09-07T09:23:13.817Z,7.87
2022-09-07T09:25:43.256Z,8.13
2022-09-07T09:28:12.428Z,8.20
2022-09-07T09:30:39.688Z,9.80
2022-09-07T09:33:18.038Z,8.93
2022-09-07T09:35:46.206Z,8.20
2022-09-07T09:38:31.179Z,8.30
2022-09-07T09:41:04.025Z,8.00
2022-09-07T09:43:46.280Z,7.93
2022-09-07T09:46:25.381Z,7.90
2022-09-07T09:49:02.445Z,7.63
2022-09-07T09:54:25.246Z,7.33
2022-09-07T09:56:53.116Z,8.47
2022-09-07T10:05:34.274Z,7.90
2022-09-07T10:08:01.636Z,7.97
2022-09-07T10:10:29.633Z,8.10
2022-09-07T10:12:57.075Z,8.37
2022-09-07T10:15:29.758Z,8.50
2022-09-07T10:17:57.309Z,8.10
2022-09-07T10:20:31.900Z,9.33
2022-09-07T10:23:00.246Z,7.83
2022-09-07T10:25:27.791Z,8.83
2022-09-07T10:28:21.384Z,8.30
2022-09-07T10:30:48.589Z,7.17
2022-09-07T10:33:34.217Z,8.00
2022-09-07T10:36:06.315Z,8.10
2022-09-07T10:38:37.571Z,7.53
2022-09-07T10:41:09.994Z,8.07
2022-09-07T10:43:44.578Z,8.37
2022-09-07T10:46:14.937Z,11.07
2022-09-07T10:48:42.429Z,8.27
2022-09-07T10:51:21.224Z,7.70
2022-09-07T10:57:02.029Z,8.10
2022-09-07T11:02:35.354Z,7.83
2022-09-07T11:05:08.735Z,7.97
2022-09-07T11:07:44.778Z,11.70
2022-09-07T11:10:37.122Z,8.23
2022-09-07T11:13:06.156Z,9.63
2022-09-07T11:15:53.555Z,8.20
2022-09-07T11:18:33.494Z,8.10
2022-09-07T11:21:01.611Z,8.10
2022-09-07T11:23:57.988Z,10.10
2022-09-07T11:26:27.964Z,8.77
2022-09-07T11:29:29.838Z,9.80
2022-09-07T11:32:03.179Z,8.77
2022-09-07T11:34:32.660Z,8.73
2022-09-07T11:37:20.082Z,9.37
2022-09-07T11:39:52.092Z,9.17
2022-09-07T11:45:34.817Z,9.23
2022-09-07T11:48:06.483Z,10.67
2022-09-07T11:50:36.071Z,8.47
2022-09-07T11:53:08.534Z,11.60
2022-09-07T11:55:38.332Z,8.43
2022-09-07T11:58:08.169Z,7.93
2022-09-07T12:00:38.051Z,8.87
2022-09-07T12:03:19.816Z,10.27
2022-09-07T12:06:01.456Z,7.73
2022-09-07T12:08:37.418Z,8.50
2022-09-07T12:11:23.606Z,7.63
2022-09-07T12:14:09.453Z,7.73
2022-09-07T12:16:40.075Z,8.00
2022-09-07T12:19:20.944Z,8.87
2022-09-07T12:21:54.192Z,9.60
2022-09-07T12:24:40.061Z,7.40
2022-09-07T12:27:37.686Z,8.20
2022-09-07T12:30:04.940Z,7.93
2022-09-07T12:32:55.431Z,8.50
2022-09-07T12:35:32.355Z,7.97
2022-09-07T12:38:03.495Z,7.83
2022-09-07T12:40:33.441Z,9.37
2022-09-07T12:43:15.585Z,8.60
2022-09-07T12:45:42.686Z,8.00
2022-09-07T12:48:15.992Z,7.77
2022-09-07T12:50:48.966Z,9.40
2022-09-07T12:53:16.026Z,10.73
2022-09-07T12:58:36.806Z,7.83
2022-09-07T13:01:07.034Z,8.90
2022-09-07T13:03:50.291Z,8.47
2022-09-07T13:07:01.544Z,9.57
2022-09-07T13:09:20.908Z,8.57
2022-09-07T13:11:48.123Z,12.07
2022-09-07T13:14:15.991Z,11.33
2022-09-07T13:19:47.004Z,9.43
2022-09-07T13:22:32.186Z,10.57
2022-09-07T13:25:00.177Z,8.40
2022-09-07T13:27:29.375Z,10.77
2022-09-07T13:29:58.040Z,8.87
2022-09-07T13:33:08.043Z,10.17
2022-09-07T13:35:16.649Z,13.07
2022-09-07T13:37:45.796Z,11.53
2022-09-07T13:40:16.906Z,12.93
2022-09-07T13:42:44.399Z,11.00
2022-09-07T13:45:26.519Z,10.37
2022-09-07T13:48:14.130Z,12.53
2022-09-07T13:50:41.204Z,11.70
2022-09-07T13:53:08.345Z,11.43
2022-09-07T13:55:58.527Z,16.50
2022-09-07T13:58:30.513Z,13.37
2022-09-07T14:01:02.485Z,15.47
2022-09-07T14:03:33.140Z,13.87
2022-09-07T14:06:15.658Z,11.10
2022-09-07T14:08:47.187Z,11.83
2022-09-07T14:11:22.227Z,11.97
2022-09-07T14:14:08.272Z,9.80
2022-09-07T14:16:36.175Z,10.90
2022-09-07T14:19:09.888Z,10.10
2022-09-07T14:21:37.125Z,10.40
2022-09-07T14:24:06.038Z,10.83
2022-09-07T14:26:33.187Z,9.57
2022-09-07T14:29:01.487Z,11.80
2022-09-07T14:31:28.769Z,13.40
2022-09-07T14:33:57.513Z,10.07
2022-09-07T14:36:45.808Z,9.30
2022-09-07T14:39:15.040Z,9.93
2022-09-07T14:41:43.280Z,9.93
2022-09-07T14:44:28.775Z,9.53
2022-09-07T14:46:57.156Z,9.53
2022-09-07T14:49:24.667Z,10.13
2022-09-07T14:51:52.654Z,10.17
2022-09-07T14:54:21.484Z,11.53
2022-09-07T14:57:03.645Z,10.87
2022-09-07T14:59:38.464Z,11.63
2022-09-07T15:02:15.344Z,9.80
2022-09-07T15:04:42.448Z,10.03
2022-09-07T15:07:28.887Z,10.00
2022-09-07T15:09:56.073Z,10.43
2022-09-07T15:12:38.377Z,9.37
2022-09-07T15:15:26.203Z,10.43
2022-09-07T15:17:55.498Z,9.10
2022-09-07T15:20:35.129Z,11.53
2022-09-07T15:23:04.827Z,9.50
2022-09-07T15:25:32.666Z,11.43
2022-09-07T15:27:59.894Z,9.60
2022-09-07T15:30:27.351Z,11.47
2022-09-07T15:32:56.899Z,11.00
2022-09-07T15:35:24.493Z,9.67
2022-09-07T15:38:59.364Z,9.83
2022-09-07T15:41:18.076Z,12.47
2022-09-07T15:43:38.068Z,11.67
2022-09-07T15:46:05.688Z,13.03
2022-09-07T15:48:32.877Z,12.17
2022-09-07T15:51:02.014Z,11.60
2022-09-07T15:56:19.903Z,10.50
2022-09-07T15:58:47.322Z,13.40
2022-09-07T16:04:04.588Z,7.00
2022-09-07T16:06:32.474Z,6.50
2022-09-07T16:08:59.972Z,8.27
2022-09-07T16:11:27.929Z,8.53
2022-09-07T16:14:01.691Z,6.30
2022-09-07T16:19:20.383Z,6.83
2022-09-07T16:21:48.110Z,9.30
2022-09-07T16:24:16.274Z,7.53
2022-09-07T16:26:43.396Z,9.83
2022-09-07T16:29:10.536Z,8.27
2022-09-07T16:31:37.920Z,7.00
2022-09-07T16:34:05.189Z,8.03
2022-09-07T16:36:32.293Z,8.23
2022-09-07T16:39:00.773Z,9.40
2022-09-07T16:41:32.004Z,8.13
2022-09-07T16:43:59.469Z,7.50
2022-09-07T16:46:28.408Z,8.23
2022-09-07T16:48:55.717Z,9.10
2022-09-07T16:51:23.524Z,7.37
2022-09-07T16:53:51.745Z,10.97
2022-09-07T16:56:19.853Z,9.07
2022-09-07T16:58:48.415Z,9.43
2022-09-07T17:01:16.713Z,8.17
2022-09-07T17:03:44.132Z,8.13
2022-09-07T17:06:13.043Z,9.67
2022-09-07T17:08:40.827Z,10.00
2022-09-07T17:11:09.261Z,9.77
2022-09-07T17:13:37.057Z,10.33
2022-09-07T17:16:05.135Z,10.70
2022-09-07T17:21:20.069Z,8.73
2022-09-07T17:23:54.304Z,10.67
2022-09-07T17:26:23.251Z,12.27
2022-09-07T17:28:51.420Z,11.50
2022-09-07T17:34:11.032Z,11.97
2022-09-07T17:36:38.100Z,12.37
2022-09-07T17:39:20.943Z,11.17
2022-09-07T17:41:52.604Z,11.53
2022-09-07T17:44:20.119Z,10.30
2022-09-07T17:46:47.244Z,10.70
2022-09-07T17:49:16.350Z,10.33
2022-09-07T17:51:44.252Z,12.00
2022-09-07T17:54:13.757Z,11.33
2022-09-07T17:56:41.788Z,13.17
2022-09-07T18:01:56.547Z,9.57
2022-09-07T18:04:24.185Z,11.00
2022-09-07T18:06:51.437Z,12.20
2022-09-07T18:09:19.695Z,12.50
2022-09-07T18:11:48.759Z,10.20
2022-09-07T18:14:17.056Z,10.33
2022-09-07T18:16:45.648Z,10.90
2022-09-07T18:19:13.278Z,11.03
2022-09-07T18:21:42.063Z,13.23
2022-09-07T18:24:13.583Z,14.53
2022-09-07T18:26:41.013Z,10.50
2022-09-07T18:29:25.822Z,10.30
2022-09-07T18:31:55.403Z,9.70
2022-09-07T18:34:22.622Z,10.67
2022-09-07T18:36:49.780Z,12.23
2022-09-07T18:39:16.911Z,10.97
2022-09-07T18:41:44.061Z,9.67
2022-09-07T18:46:58.285Z,11.13
2022-09-07T18:49:25.400Z,10.47
2022-09-07T18:54:41.411Z,12.10
2022-09-07T18:57:08.856Z,10.20
2022-09-07T18:59:36.169Z,11.83
2022-09-07T19:02:05.884Z,13.37
2022-09-07T19:07:21.257Z,10.10
2022-09-07T19:09:49.025Z,13.87
2022-09-07T19:12:16.210Z,15.37
2022-09-07T19:14:43.305Z,11.10
2022-09-07T19:17:11.797Z,9.80
2022-09-07T19:19:39.616Z,11.20
2022-09-07T19:22:06.876Z,16.53
2022-09-07T19:24:34.266Z,12.60
2022-09-07T19:27:01.472Z,9.67
2022-09-07T19:29:29.130Z,11.07
2022-09-07T19:32:06.971Z,9.80
2022-09-07T19:34:34.142Z,13.30
2022-09-07T19:37:01.684Z,10.90
2022-09-07T19:39:28.859Z,12.97
2022-09-07T19:41:56.015Z,13.60
2022-09-07T19:44:23.170Z,12.57
2022-09-07T19:46:50.350Z,10.90
2022-09-07T19:49:17.577Z,11.80
2022-09-07T19:51:44.798Z,14.67
2022-09-07T19:54:13.237Z,13.33
2022-09-07T19:56:41.418Z,11.27
2022-09-07T19:59:08.940Z,12.50
2022-09-07T20:01:36.229Z,13.60
2022-09-07T20:04:04.567Z,13.80
2022-09-07T20:06:32.833Z,12.73
2022-09-07T20:09:01.298Z,13.70
2022-09-07T20:11:28.965Z,12.80
2022-09-07T20:13:57.184Z,12.63
2022-09-07T20:16:24.897Z,12.20
2022-09-07T20:18:53.359Z,11.37
2022-09-07T20:21:22.228Z,16.07
2022-09-07T20:23:49.557Z,12.33
2022-09-07T20:26:17.938Z,13.00
2022-09-07T20:28:45.342Z,11.83
2022-09-07T20:31:16.601Z,15.57
2022-09-07T20:33:44.823Z,16.60
2022-09-07T20:36:13.061Z,12.90
2022-09-07T20:38:41.441Z,15.03
2022-09-07T20:41:08.807Z,14.20
2022-09-07T20:43:35.919Z,11.33
2022-09-07T20:46:03.013Z,12.27
2022-09-07T20:48:30.158Z,12.93
2022-09-07T20:50:57.317Z,12.03
2022-09-07T20:53:25.214Z,13.57
2022-09-07T20:55:59.782Z,10.40
2022-09-07T20:58:27.273Z,13.77
2022-09-07T21:00:54.497Z,12.87
2022-09-07T21:03:21.962Z,12.20
2022-09-07T21:05:49.045Z,12.40
2022-09-07T21:08:16.620Z,12.80
2022-09-07T21:10:44.473Z,11.97
2022-09-07T21:13:11.655Z,13.00
2022-09-07T21:15:39.258Z,12.37
2022-09-07T21:18:07.778Z,13.20
2022-09-07T21:20:34.994Z,13.07
2022-09-07T21:23:02.078Z,15.20
2022-09-07T21:25:29.189Z,12.43
2022-09-07T21:27:56.546Z,11.10
2022-09-07T21:30:23.654Z,11.67
2022-09-07T21:32:51.702Z,12.27
2022-09-07T21:35:19.231Z,14.23
2022-09-07T21:37:46.650Z,12.10
2022-09-07T21:40:13.870Z,15.87
2022-09-07T21:42:41.084Z,15.80
2022-09-07T21:45:09.305Z,14.13
2022-09-07T21:47:36.564Z,14.27
2022-09-07T21:50:04.384Z,14.73
2022-09-07T21:52:31.759Z,15.43
2022-09-07T21:54:58.931Z,13.20
2022-09-07T21:57:26.032Z,11.90
2022-09-07T21:59:53.109Z,13.43
2022-09-07T22:02:20.308Z,15.00
2022-09-07T22:04:47.416Z,12.97
2022-09-07T22:07:14.633Z,13.43
2022-09-07T22:09:41.698Z,12.60
2022-09-07T22:12:08.877Z,14.40
2022-09-07T22:14:35.945Z,14.03
2022-09-07T22:17:03.043Z,12.23
2022-09-07T22:19:30.134Z,13.00
2022-09-07T22:21:57.232Z,12.97
2022-09-07T22:24:24.334Z,12.53
2022-09-07T22:26:51.589Z,13.63
2022-09-07T22:29:18.691Z,13.03
2022-09-07T22:31:45.891Z,13.70
2022-09-07T22:34:13.076Z,14.67
2022-09-07T22:36:41.410Z,15.93
2022-09-07T22:39:10.628Z,13.53
2022-09-07T22:41:38.466Z,11.30
2022-09-07T22:44:06.376Z,12.80
2022-09-07T22:46:35.995Z,12.27
2022-09-07T22:49:03.464Z,14.33
2022-09-07T22:51:30.603Z,12.27
2022-09-07T22:53:57.846Z,12.60
2022-09-07T22:56:26.810Z,11.93
2022-09-07T22:58:55.548Z,11.50
2022-09-07T23:01:22.860Z,11.53
2022-09-07T23:03:50.486Z,11.30
2022-09-07T23:06:25.193Z,14.13
2022-09-07T23:08:52.915Z,14.50
2022-09-07T23:11:20.717Z,13.77
2022-09-07T23:13:50.972Z,12.67
2022-09-07T23:16:18.302Z,13.33
2022-09-07T23:18:45.464Z,26.10
2022-09-07T23:21:12.530Z,25.97
2022-09-07T23:23:39.658Z,24.20
2022-09-07T23:26:06.861Z,58.00
2022-09-07T23:28:34.574Z,32.13
2022-09-07T23:31:02.145Z,25.00
2022-09-07T23:33:29.258Z,21.97
2022-09-07T23:36:07.096Z,18.43
2022-09-07T23:38:34.354Z,17.53
2022-09-07T23:41:01.526Z,20.40
2022-09-07T23:43:31.299Z,31.57
2022-09-07T23:45:59.895Z,28.20
2022-09-07T23:48:27.064Z,20.27
2022-09-07T23:50:54.260Z,18.90
2022-09-07T23:53:22.304Z,17.57
2022-09-07T23:55:53.096Z,18.80
2022-09-07T23:58:21.079Z,18.93
